Time;durP1;ratioP1;P1;durP2;ratioP2;P2;SDS_P1;SDS_P2;PMS_P1;PMS_P2;Temp;Humidity;BMP_temperature;BMP_pressure;BME280_temperature;BME280_humidity;BME280_pressure;Samples;Min_cycle;Max_cycle;Signal;HPM_P1;HPM_P2
2021/12/18 00:00:58;;;;;;;;;;;;;;;5.60;100.00;103709.91;5062349;28;20015;-79
2021/12/18 00:03:23;;;;;;;;;;;;;;;5.64;100.00;103702.84;5057198;28;19920;-78
2021/12/18 00:05:49;;;;;;;;;;;;;;;5.61;100.00;103696.00;5044577;28;19938;-78
2021/12/18 00:08:14;;;;;;;;;;;;;;;5.59;100.00;103702.97;5063523;28;19930;-78
2021/12/18 00:10:40;;;;;;;;;;;;;;;5.64;100.00;103700.25;5064001;28;19915;-78
2021/12/18 00:13:05;;;;;;;;;;;;;;;5.60;100.00;103699.47;5040992;28;19916;-78
2021/12/18 00:15:31;;;;;;;;;;;;;;;5.61;100.00;103700.31;5069667;28;19931;-79
2021/12/18 00:17:56;;;;;;;;;;;;;;;5.60;100.00;103691.66;5079537;28;19916;-77
2021/12/18 00:20:24;;;;;;;;;;;;;;;5.62;100.00;103696.84;5042282;28;19956;-78
2021/12/18 00:22:50;;;;;;;;;;;;;;;5.66;100.00;103694.09;5076541;28;21142;-78
2021/12/18 00:25:15;;;;;;;;;;;;;;;5.64;100.00;103685.47;5077120;28;19922;-79
2021/12/18 00:27:41;;;;;;;;;;;;;;;5.63;100.00;103686.38;5059300;28;20438;-79
2021/12/18 00:30:07;;;;;;;;;;;;;;;5.61;100.00;103688.19;5076502;28;20360;-78
2021/12/18 00:32:32;;;;;;;;;;;;;;;5.60;100.00;103690.81;5076234;28;19927;-79
2021/12/18 00:34:58;;;;;;;;;;;;;;;5.56;100.00;103697.00;5057626;28;19920;-77
2021/12/18 00:37:24;;;;;;;;;;;;;;;5.54;100.00;103701.38;5056674;28;20377;-79
2021/12/18 00:39:56;;;;;;;;;;;;;;;5.57;100.00;103707.38;5060899;28;19923;-77
2021/12/18 00:45:07;;;;;;;;;;;;;;;5.53;100.00;103705.75;5055168;28;20382;-79
2021/12/18 00:47:32;;;;;;;;;;;;;;;5.53;100.00;103702.28;5055855;28;19927;-76
2021/12/18 00:49:58;;;;;;;;;;;;;;;5.58;100.00;103703.88;5096768;28;19916;-78
2021/12/18 00:52:23;;;;;;;;;;;;;;;5.56;100.00;103699.63;5058101;28;19962;-77
2021/12/18 00:54:49;;;;;;;;;;;;;;;5.57;100.00;103706.53;5081704;28;19919;-77
2021/12/18 00:57:15;;;;;;;;;;;;;;;5.55;100.00;103696.13;5058558;28;20289;-78
2021/12/18 00:59:40;;;;;;;;;;;;;;;5.51;100.00;103706.69;5055194;28;19990;-78
2021/12/18 01:02:06;;;;;;;;;;;;;;;5.58;100.00;103690.84;5075488;28;19912;-77
2021/12/18 01:04:31;;;;;;;;;;;;;;;5.56;100.00;103689.19;5058242;28;19916;-77
2021/12/18 01:06:57;;;;;;;;;;;;;;;5.54;100.00;103696.19;5058153;28;19912;-77
2021/12/18 01:09:34;;;;;;;;;;;;;;;5.54;100.00;103697.06;5059892;28;19951;-77
2021/12/18 01:12:00;;;;;;;;;;;;;;;5.58;100.00;103703.03;5089202;28;20007;-77
2021/12/18 01:25:06;;;;;;;;;;;;;;;5.56;100.00;103684.84;5055257;28;19916;-77
2021/12/18 01:27:32;;;;;;;;;;;;;;;5.54;100.00;103698.78;5074758;28;19920;-77
2021/12/18 01:29:57;;;;;;;;;;;;;;;5.53;100.00;103694.47;5090662;28;20441;-76
2021/12/18 01:32:24;;;;;;;;;;;;;;;5.52;100.00;103697.97;5058697;28;19923;-77
2021/12/18 01:34:50;;;;;;;;;;;;;;;5.53;100.00;103700.53;5094093;28;19920;-77
2021/12/18 01:37:15;;;;;;;;;;;;;;;5.52;100.00;103704.06;5073828;28;19923;-77
2021/12/18 01:39:41;;;;;;;;;;;;;;;5.57;100.00;103698.72;5058493;28;20379;-77
2021/12/18 01:52:43;;;;;;;;;;;;;;;5.58;100.00;103692.63;5091220;28;19945;-77
2021/12/18 01:55:10;;;;;;;;;;;;;;;5.54;100.00;103685.75;5040103;28;19924;-77
2021/12/18 01:57:36;;;;;;;;;;;;;;;5.58;100.00;103679.59;5058334;28;19915;-79
2021/12/18 02:00:03;;;;;;;;;;;;;;;5.62;100.00;103686.44;5069641;28;19942;-77
2021/12/18 02:02:38;;;;;;;;;;;;;;;5.60;100.00;103683.00;5056478;28;19916;-78
2021/12/18 02:05:03;;;;;;;;;;;;;;;5.62;100.00;103679.47;5057407;28;19915;-77
2021/12/18 02:07:28;;;;;;;;;;;;;;;5.59;100.00;103683.91;5042480;28;20349;-78
2021/12/18 02:12:21;;;;;;;;;;;;;;;5.70;100.00;103683.59;5057178;28;19916;-77
2021/12/18 02:22:48;;;;;;;;;;;;;;;5.69;100.00;103681.88;5055526;28;19923;-78
2021/12/18 02:25:14;;;;;;;;;;;;;;;5.70;100.00;103686.22;5055247;28;19916;-77
2021/12/18 02:27:39;;;;;;;;;;;;;;;5.60;100.00;103673.44;5043973;28;20389;-77
2021/12/18 02:30:06;;;;;;;;;;;;;;;5.60;100.00;103680.41;5059239;28;20385;-76
2021/12/18 02:32:31;;;;;;;;;;;;;;;5.63;100.00;103682.91;5043947;28;19916;-77
2021/12/18 02:35:03;;;;;;;;;;;;;;;5.64;100.00;103676.81;5041967;28;19927;-79
2021/12/18 02:37:29;;;;;;;;;;;;;;;5.63;100.00;103675.97;5040936;28;19931;-78
2021/12/18 02:42:28;;;;;;;;;;;;;;;5.66;100.00;103662.84;5074936;28;19916;-78
2021/12/18 02:44:53;;;;;;;;;;;;;;;5.65;100.00;103668.09;5041467;28;20301;-79
2021/12/18 02:47:20;;;;;;;;;;;;;;;5.61;100.00;103656.06;5047648;28;19916;-77
2021/12/18 02:49:49;;;;;;;;;;;;;;;5.61;100.00;103653.44;5039797;28;19912;-77
2021/12/18 02:52:14;;;;;;;;;;;;;;;5.65;100.00;103655.06;5058140;28;19982;-77
2021/12/18 02:54:41;;;;;;;;;;;;;;;5.64;100.00;103654.22;5059615;28;19916;-78
2021/12/18 02:57:07;;;;;;;;;;;;;;;5.63;100.00;103655.13;5062597;28;20424;-77
2021/12/18 02:59:43;;;;;;;;;;;;;;;5.61;100.00;103654.34;5058623;28;19920;-77
2021/12/18 03:02:09;;;;;;;;;;;;;;;5.59;100.00;103652.66;5043249;28;19916;-77
2021/12/18 03:04:37;;;;;;;;;;;;;;;5.58;100.00;103650.97;5042681;28;19946;-77
2021/12/18 03:07:05;;;;;;;;;;;;;;;5.61;100.00;103648.25;5075033;28;19919;-78
2021/12/18 03:21:14;;;;;;;;;;;;;;;5.58;100.00;103633.56;5075098;28;19923;-77
2021/12/18 03:23:30;;;;;;;;;;;;;;;5.59;100.00;103632.66;5059578;28;19913;-77
2021/12/18 03:25:58;;;;;;;;;;;;;;;5.68;100.00;103628.94;5055593;28;20027;-77
2021/12/18 03:28:24;;;;;;;;;;;;;;;5.69;100.00;103629.78;5039451;28;20350;-78
2021/12/18 03:30:50;;;;;;;;;;;;;;;5.66;100.00;103631.59;5076016;28;19926;-76
2021/12/18 03:33:15;;;;;;;;;;;;;;;5.69;100.00;103629.78;5062176;28;19916;-77
2021/12/18 03:35:41;;;;;;;;;;;;;;;5.64;100.00;103627.34;5060576;28;19920;-77
2021/12/18 03:38:09;;;;;;;;;;;;;;;5.62;100.00;103626.53;5062726;28;19916;-77
2021/12/18 03:40:35;;;;;;;;;;;;;;;5.65;100.00;103626.41;5064327;28;19924;-79
2021/12/18 03:43:00;;;;;;;;;;;;;;;5.62;100.00;103627.38;5067413;28;19915;-78
2021/12/18 03:45:26;;;;;;;;;;;;;;;5.66;100.00;103626.38;5066919;28;20381;-78
2021/12/18 03:47:52;;;;;;;;;;;;;;;5.69;100.00;103625.47;5062425;28;19913;-77
2021/12/18 03:50:18;;;;;;;;;;;;;;;5.71;100.00;103626.28;5060401;28;19926;-78
2021/12/18 03:52:43;;;;;;;;;;;;;;;5.66;100.00;103622.94;5077966;28;19984;-79
2021/12/18 03:55:09;;;;;;;;;;;;;;;5.63;100.00;103620.41;5060967;28;19923;-77
2021/12/18 03:57:34;;;;;;;;;;;;;;;5.76;100.00;103620.91;5073582;28;19916;-77
2021/12/18 04:00:00;;;;;;;;;;;;;;;5.74;100.00;103610.53;5075727;28;19912;-77
2021/12/18 04:02:25;;;;;;;;;;;;;;;5.70;100.00;103610.69;5059457;28;19981;-77
2021/12/18 04:04:51;;;;;;;;;;;;;;;5.72;100.00;103616.69;5077501;28;20392;-78
2021/12/18 04:07:17;;;;;;;;;;;;;;;5.71;100.00;103617.59;5057237;28;19917;-78
2021/12/18 04:09:42;;;;;;;;;;;;;;;5.66;100.00;103608.16;5061780;28;20356;-79
2021/12/18 04:12:08;;;;;;;;;;;;;;;5.67;100.00;103616.84;5059394;28;19916;-78
2021/12/18 04:14:33;;;;;;;;;;;;;;;5.68;100.00;103610.72;5076107;28;19924;-76
2021/12/18 04:16:59;;;;;;;;;;;;;;;5.73;100.00;103608.00;5047947;28;19915;-78
2021/12/18 04:19:25;;;;;;;;;;;;;;;5.69;100.00;103603.75;5059736;28;19920;-77
2021/12/18 04:21:50;;;;;;;;;;;;;;;5.72;100.00;103599.31;5077505;28;19923;-78
2021/12/18 04:24:16;;;;;;;;;;;;;;;5.74;100.00;103600.13;5059241;28;19963;-77
2021/12/18 04:26:42;;;;;;;;;;;;;;;5.71;100.00;103605.44;5075803;28;19916;-76
2021/12/18 04:29:08;;;;;;;;;;;;;;;5.72;100.00;103599.31;5059010;28;20666;-77
2021/12/18 04:31:34;;;;;;;;;;;;;;;5.85;100.00;103602.41;5067350;28;19959;-78
2021/12/18 04:34:00;;;;;;;;;;;;;;;5.85;100.00;103595.44;5079949;28;19919;-77
2021/12/18 04:36:26;;;;;;;;;;;;;;;5.80;100.00;103604.28;5042878;28;20464;-77
2021/12/18 04:38:51;;;;;;;;;;;;;;;5.77;100.00;103594.84;5060773;28;19919;-77
2021/12/18 04:41:23;;;;;;;;;;;;;;;5.84;100.00;103585.09;5057555;28;19916;-79
2021/12/18 04:43:50;;;;;;;;;;;;;;;5.81;100.00;103587.78;5061642;28;20192;-77
2021/12/18 04:46:15;;;;;;;;;;;;;;;5.79;100.00;103584.38;5043175;28;19923;-79
2021/12/18 04:48:41;;;;;;;;;;;;;;;5.80;100.00;103580.84;5077580;28;19912;-77
2021/12/18 04:51:06;;;;;;;;;;;;;;;5.78;100.00;103580.03;5060530;28;19914;-80
2021/12/18 04:53:32;;;;;;;;;;;;;;;5.87;100.00;103581.53;5092128;28;19923;-77
2021/12/18 04:55:57;;;;;;;;;;;;;;;5.83;100.00;103583.38;5055505;28;19921;-78
2021/12/18 04:58:23;;;;;;;;;;;;;;;5.82;100.00;103581.66;5074335;28;19916;-78
2021/12/18 05:00:49;;;;;;;;;;;;;;;5.80;100.00;103579.13;5075153;28;19919;-77
2021/12/18 05:03:16;;;;;;;;;;;;;;;5.85;100.00;103579.81;5091231;28;20056;-77
2021/12/18 05:05:42;;;;;;;;;;;;;;;5.81;100.00;103575.59;5044022;28;19969;-78
2021/12/18 05:08:07;;;;;;;;;;;;;;;5.87;100.00;103574.56;5042736;28;20351;-79
2021/12/18 05:10:33;;;;;;;;;;;;;;;5.85;100.00;103569.41;5073547;28;19973;-78
2021/12/18 05:12:58;;;;;;;;;;;;;;;5.83;100.00;103565.13;5042886;28;21388;-78
2021/12/18 05:15:24;;;;;;;;;;;;;;;5.78;100.00;103570.50;5078203;28;19916;-78
2021/12/18 05:17:49;;;;;;;;;;;;;;;5.77;100.00;103571.38;5078550;28;19916;-78
2021/12/18 05:20:15;;;;;;;;;;;;;;;5.82;100.00;103572.09;5079527;28;19916;-78
2021/12/18 05:22:40;;;;;;;;;;;;;;;5.83;100.00;103570.34;5061251;28;19921;-79
2021/12/18 05:25:06;;;;;;;;;;;;;;;5.80;100.00;103571.31;5060538;28;19920;-78
2021/12/18 05:27:32;;;;;;;;;;;;;;;5.88;100.00;103575.41;5057172;28;19916;-77
2021/12/18 05:29:57;;;;;;;;;;;;;;;5.88;100.00;103565.88;5088886;28;20540;-78
2021/12/18 05:32:23;;;;;;;;;;;;;;;5.97;100.00;103569.94;5060347;28;19916;-77
2021/12/18 05:34:48;;;;;;;;;;;;;;;5.90;100.00;103571.88;5059443;28;19919;-78
2021/12/18 05:39:40;;;;;;;;;;;;;;;5.88;100.00;103570.19;5075443;28;19916;-77
2021/12/18 05:42:06;;;;;;;;;;;;;;;5.81;100.00;103572.16;5061146;28;19938;-77
2021/12/18 05:44:31;;;;;;;;;;;;;;;5.84;100.00;103569.47;5083195;28;19927;-78
2021/12/18 05:46:57;;;;;;;;;;;;;;;5.83;100.00;103558.16;5075975;28;20412;-78
2021/12/18 05:49:22;;;;;;;;;;;;;;;5.85;100.00;103565.94;5051154;28;19917;-79
2021/12/18 05:51:48;;;;;;;;;;;;;;;5.80;100.00;103570.44;5076060;28;19985;-78
2021/12/18 05:54:14;;;;;;;;;;;;;;;5.78;100.00;103570.50;5058952;28;19927;-78
2021/12/18 05:56:40;;;;;;;;;;;;;;;5.85;100.00;103560.72;5042773;28;20376;-78
2021/12/18 05:59:05;;;;;;;;;;;;;;;5.80;100.00;103570.44;5079415;28;19927;-77
2021/12/18 06:01:31;;;;;;;;;;;;;;;5.86;100.00;103562.47;5076847;28;19918;-78
2021/12/18 06:03:57;;;;;;;;;;;;;;;5.75;100.00;103561.94;5059195;28;20027;-77
2021/12/18 06:06:23;;;;;;;;;;;;;;;5.77;100.00;103567.94;5059929;28;19960;-78
2021/12/18 06:08:49;;;;;;;;;;;;;;;5.74;100.00;103563.66;5065041;28;19916;-77
2021/12/18 06:11:16;;;;;;;;;;;;;;;5.76;100.00;103568.81;5075872;28;19938;-77
2021/12/18 06:13:42;;;;;;;;;;;;;;;5.67;100.00;103564.75;5054507;28;19916;-79
2021/12/18 06:16:08;;;;;;;;;;;;;;;5.72;100.00;103562.84;5042453;28;19920;-78
2021/12/18 06:18:34;;;;;;;;;;;;;;;5.72;100.00;103564.63;5060891;28;20312;-76
2021/12/18 06:21:00;;;;;;;;;;;;;;;5.64;100.00;103557.03;5060171;28;20423;-77
2021/12/18 06:23:26;;;;;;;;;;;;;;;5.63;100.00;103561.38;5091233;28;19916;-78
2021/12/18 06:25:51;;;;;;;;;;;;;;;5.67;100.00;103556.94;5055595;28;20298;-77
2021/12/18 06:28:17;;;;;;;;;;;;;;;5.65;100.00;103549.19;5040397;28;19916;-77
2021/12/18 06:30:42;;;;;;;;;;;;;;;5.62;100.00;103558.81;5041397;28;19959;-77
2021/12/18 06:33:08;;;;;;;;;;;;;;;5.61;100.00;103554.50;5057667;28;20433;-77
2021/12/18 06:35:34;;;;;;;;;;;;;;;5.64;100.00;103557.88;5056754;28;20352;-76
2021/12/18 06:38:00;;;;;;;;;;;;;;;5.65;100.00;103557.00;5060097;28;19916;-76
2021/12/18 06:40:25;;;;;;;;;;;;;;;5.63;100.00;103555.31;5041711;28;20387;-78
2021/12/18 06:42:51;;;;;;;;;;;;;;;5.61;100.00;103557.09;5060076;28;19955;-76
2021/12/18 06:45:16;;;;;;;;;;;;;;;5.62;100.00;103559.66;5058308;28;19916;-76
2021/12/18 06:47:42;;;;;;;;;;;;;;;5.61;100.00;103557.97;5058935;28;20416;-78
2021/12/18 06:50:08;;;;;;;;;;;;;;;5.68;100.00;103569.06;5057485;28;19915;-77
2021/12/18 06:52:33;;;;;;;;;;;;;;;5.59;100.00;103566.72;5077205;28;19963;-77
2021/12/18 06:54:59;;;;;;;;;;;;;;;5.64;100.00;103564.84;5080333;28;19927;-79
2021/12/18 06:57:24;;;;;;;;;;;;;;;5.67;100.00;103569.97;5040704;28;19970;-77
2021/12/18 06:59:50;;;;;;;;;;;;;;;5.76;100.00;103572.28;5059253;28;19993;-77
2021/12/18 07:02:16;;;;;;;;;;;;;;;5.66;100.00;103571.69;5038911;28;19913;-77
2021/12/18 07:04:42;;;;;;;;;;;;;;;5.62;100.00;103574.44;5063388;28;19923;-78
2021/12/18 07:07:07;;;;;;;;;;;;;;;5.59;100.00;103577.97;5045166;28;19923;-77
2021/12/18 07:09:33;;;;;;;;;;;;;;;5.62;100.00;103570.09;5076115;28;19920;-76
2021/12/18 07:11:58;;;;;;;;;;;;;;;5.61;100.00;103565.78;5055438;28;19916;-77
2021/12/18 07:14:24;;;;;;;;;;;;;;;5.62;100.00;103570.09;5062433;28;19912;-76
2021/12/18 07:16:49;;;;;;;;;;;;;;;5.63;100.00;103568.31;5095392;28;19912;-77
2021/12/18 07:19:15;;;;;;;;;;;;;;;5.64;100.00;103564.84;5055376;28;20015;-77
2021/12/18 07:21:41;;;;;;;;;;;;;;;5.64;100.00;103563.09;5063099;28;19941;-77
2021/12/18 07:24:06;;;;;;;;;;;;;;;5.59;100.00;103564.97;5078876;28;19916;-77
2021/12/18 07:26:32;;;;;;;;;;;;;;;5.58;100.00;103565.03;5070476;28;19955;-76
2021/12/18 07:28:59;;;;;;;;;;;;;;;5.60;100.00;103558.03;5063106;28;19930;-78
2021/12/18 07:31:25;;;;;;;;;;;;;;;5.60;100.00;103560.63;5084139;28;19911;-77
2021/12/18 07:33:50;;;;;;;;;;;;;;;5.60;100.00;103558.88;5060923;28;19922;-76
2021/12/18 07:36:16;;;;;;;;;;;;;;;5.63;100.00;103553.56;5079623;28;19911;-78
2021/12/18 07:38:43;;;;;;;;;;;;;;;5.59;100.00;103558.91;5059156;28;19925;-78
2021/12/18 07:41:09;;;;;;;;;;;;;;;5.67;100.00;103559.56;5075542;28;19926;-77
2021/12/18 07:43:35;;;;;;;;;;;;;;;5.64;100.00;103557.03;5065909;28;19987;-77
2021/12/18 07:46:00;;;;;;;;;;;;;;;5.63;100.00;103557.91;5076594;28;20262;-76
2021/12/18 07:48:25;;;;;;;;;;;;;;;5.60;100.00;103561.47;5044114;28;19915;-77
2021/12/18 07:50:51;;;;;;;;;;;;;;;5.60;100.00;103558.03;5057204;28;19920;-77
2021/12/18 07:53:17;;;;;;;;;;;;;;;5.61;100.00;103564.91;5057465;28;19916;-77
2021/12/18 07:55:42;;;;;;;;;;;;;;;5.65;100.00;103559.59;5058834;28;19956;-77
2021/12/18 07:58:08;;;;;;;;;;;;;;;5.65;100.00;103562.19;5075670;28;19961;-76
2021/12/18 08:00:33;;;;;;;;;;;;;;;5.74;100.00;103557.59;5073026;28;19920;-76
2021/12/18 08:02:59;;;;;;;;;;;;;;;5.66;100.00;103566.50;5044560;28;19923;-76
2021/12/18 08:05:24;;;;;;;;;;;;;;;5.78;100.00;103561.81;5075686;28;19919;-77
2021/12/18 08:07:50;;;;;;;;;;;;;;;5.83;100.00;103557.31;5063650;28;19944;-76
2021/12/18 08:10:16;;;;;;;;;;;;;;;5.74;100.00;103558.44;5044922;28;19931;-76
2021/12/18 08:12:42;;;;;;;;;;;;;;;5.76;100.00;103563.63;5045870;28;19976;-77
2021/12/18 08:15:07;;;;;;;;;;;;;;;5.78;100.00;103557.47;5058108;28;19973;-78
2021/12/18 08:17:33;;;;;;;;;;;;;;;5.79;100.00;103559.16;5079999;28;19920;-77
2021/12/18 08:19:59;;;;;;;;;;;;;;;5.74;100.00;103550.63;5047573;28;19916;-76
2021/12/18 08:22:24;;;;;;;;;;;;;;;5.73;100.00;103555.91;5057118;28;19912;-76
2021/12/18 08:24:50;;;;;;;;;;;;;;;5.72;100.00;103551.59;5082060;28;19937;-76
2021/12/18 08:27:15;;;;;;;;;;;;;;;5.79;100.00;103548.75;5051610;28;19916;-77
2021/12/18 08:29:41;;;;;;;;;;;;;;;5.85;100.00;103547.72;5062302;28;19974;-77
2021/12/18 08:32:07;;;;;;;;;;;;;;;5.79;100.00;103553.97;5065532;28;20283;-77
2021/12/18 08:34:32;;;;;;;;;;;;;;;5.86;100.00;103546.81;5077717;28;19924;-78
2021/12/18 08:36:58;;;;;;;;;;;;;;;5.80;100.00;103545.25;5065316;28;19912;-76
2021/12/18 08:39:23;;;;;;;;;;;;;;;5.96;100.00;103550.03;5062694;28;19919;-77
2021/12/18 08:41:49;;;;;;;;;;;;;;;5.88;100.00;103550.22;5079370;28;19943;-77
2021/12/18 08:44:15;;;;;;;;;;;;;;;5.87;100.00;103548.50;5063893;28;19916;-76
2021/12/18 08:46:40;;;;;;;;;;;;;;;5.95;100.00;103546.56;5062935;28;19943;-75
2021/12/18 08:49:06;;;;;;;;;;;;;;;5.94;100.00;103552.66;5046701;28;19915;-75
2021/12/18 08:51:32;;;;;;;;;;;;;;;5.96;100.00;103555.25;5064308;28;19912;-77
2021/12/18 08:53:57;;;;;;;;;;;;;;;5.98;100.00;103548.22;5063441;28;19908;-78
2021/12/18 08:56:23;;;;;;;;;;;;;;;6.01;100.00;103550.75;5079359;28;19920;-76
2021/12/18 08:58:50;;;;;;;;;;;;;;;6.07;100.00;103547.94;5063830;28;19916;-76
2021/12/18 09:01:17;;;;;;;;;;;;;;;6.08;100.00;103536.59;5044228;28;20376;-78
2021/12/18 09:03:42;;;;;;;;;;;;;;;6.02;100.00;103542.84;5066052;28;19908;-79
2021/12/18 09:06:08;;;;;;;;;;;;;;;6.03;100.00;103541.13;5061240;28;19945;-78
2021/12/18 09:08:34;;;;;;;;;;;;;;;6.06;100.00;103545.38;5064209;28;19919;-76
2021/12/18 09:10:59;;;;;;;;;;;;;;;6.09;100.00;103532.25;5048145;28;19923;-76
2021/12/18 09:13:25;;;;;;;;;;;;;;;6.01;100.00;103543.78;5060957;28;20025;-77
2021/12/18 09:15:50;;;;;;;;;;;;;;;6.02;100.00;103531.59;5077215;28;19970;-77
2021/12/18 09:18:16;;;;;;;;;;;;;;;6.07;100.00;103534.06;5061248;28;19999;-78
2021/12/18 09:20:44;;;;;;;;;;;;;;;6.02;100.00;103528.97;5076515;28;20374;-78
2021/12/18 09:23:10;;;;;;;;;;;;;;;6.00;100.00;103538.59;5053727;28;19969;-77
2021/12/18 09:25:37;;;;;;;;;;;;;;;5.99;100.00;103524.72;5079374;28;19919;-77
2021/12/18 09:28:03;;;;;;;;;;;;;;;5.98;100.00;103532.59;5041272;28;19930;-78
2021/12/18 09:30:29;;;;;;;;;;;;;;;6.02;100.00;103540.25;5060045;28;19968;-77
2021/12/18 09:32:54;;;;;;;;;;;;;;;6.04;100.00;103546.25;5046512;28;19985;-77
2021/12/18 09:35:21;;;;;;;;;;;;;;;5.98;100.00;103535.19;5059675;28;19920;-76
2021/12/18 09:37:47;;;;;;;;;;;;;;;5.90;100.00;103538.00;5095136;28;19919;-76
2021/12/18 09:40:13;;;;;;;;;;;;;;;5.92;100.00;103530.16;5060700;28;19912;-76
2021/12/18 09:42:39;;;;;;;;;;;;;;;6.03;100.00;103526.34;5047607;28;19915;-76
2021/12/18 09:45:06;;;;;;;;;;;;;;;5.96;100.00;103529.19;5091655;28;19922;-77
2021/12/18 09:47:31;;;;;;;;;;;;;;;6.00;100.00;103517.75;5054944;28;19924;-78
2021/12/18 09:49:57;;;;;;;;;;;;;;;5.98;100.00;103516.97;5037336;28;19912;-78
2021/12/18 09:52:25;;;;;;;;;;;;;;;6.03;100.00;103513.31;5070129;28;19916;-77
2021/12/18 09:54:57;;;;;;;;;;;;;;;6.07;100.00;103513.22;5074162;28;20457;-78
2021/12/18 09:57:22;;;;;;;;;;;;;;;6.10;100.00;103508.72;5056600;28;19916;-77
2021/12/18 09:59:48;;;;;;;;;;;;;;;6.09;100.00;103521.84;5058278;28;20443;-79
2021/12/18 10:02:14;;;;;;;;;;;;;;;6.11;100.00;103513.06;5053809;28;20434;-78
2021/12/18 10:04:39;;;;;;;;;;;;;;;6.15;100.00;103504.22;5057844;28;20320;-78
2021/12/18 10:07:22;;;;;;;;;;;;;;;6.14;100.00;103504.28;5039357;28;19954;-78
2021/12/18 10:09:49;;;;;;;;;;;;;;;6.22;100.00;103502.28;5057683;28;19916;-76
2021/12/18 10:12:22;;;;;;;;;;;;;;;6.22;100.00;103490.09;5058432;28;19917;-77
2021/12/18 10:14:58;;;;;;;;;;;;;;;6.19;100.00;103492.78;5076995;28;19926;-77
2021/12/18 10:17:34;;;;;;;;;;;;;;;6.19;100.00;103499.78;5060191;28;19922;-76
2021/12/18 10:20:14;;;;;;;;;;;;;;;6.28;100.00;103489.03;5060196;28;19915;-76
2021/12/18 10:22:51;;;;;;;;;;;;;;;6.21;100.00;103491.00;5053061;28;20374;-76
2021/12/18 10:25:21;;;;;;;;;;;;;;;6.27;100.00;103489.94;5059938;28;19990;-77
2021/12/18 10:28:08;;;;;;;;;;;;;;;6.36;100.00;103491.41;5077326;28;19954;-77
2021/12/18 10:30:34;;;;;;;;;;;;;;;6.40;100.00;103473.00;5059636;28;19920;-77
2021/12/18 10:33:18;;;;;;;;;;;;;;;6.38;100.00;103474.78;5043320;28;19926;-77
2021/12/18 10:35:44;;;;;;;;;;;;;;;6.41;100.00;103474.69;5058790;28;19935;-76
2021/12/18 10:38:29;;;;;;;;;;;;;;;6.40;100.00;103472.13;5054808;28;19999;-78
2021/12/18 10:40:55;;;;;;;;;;;;;;;6.50;100.00;103476.13;5057784;28;19916;-76
2021/12/18 10:43:20;;;;;;;;;;;;;;;6.45;100.00;103466.78;5042199;28;19915;-76
2021/12/18 10:45:46;;;;;;;;;;;;;;;6.52;100.00;103470.88;5055680;28;19943;-76
2021/12/18 10:48:15;;;;;;;;;;;;;;;6.54;100.00;103463.84;5071936;28;19971;-76
2021/12/18 10:50:46;;;;;;;;;;;;;;;6.49;100.00;103458.78;5068327;28;19923;-76
2021/12/18 10:53:19;;;;;;;;;;;;;;;6.50;100.00;103468.31;5057479;28;19954;-76
2021/12/18 10:55:45;;;;;;;;;;;;;;;6.62;100.00;103454.00;5060523;28;19923;-76
2021/12/18 10:58:16;;;;;;;;;;;;;;;6.63;100.00;103448.72;5078437;28;19916;-77
2021/12/18 11:00:47;;;;;;;;;;;;;;;6.59;100.00;103454.97;5058593;28;19916;-74
2021/12/18 11:03:16;;;;;;;;;;;;;;;6.61;100.00;103453.16;5072035;28;19912;-78
2021/12/18 11:05:41;;;;;;;;;;;;;;;6.68;100.00;103448.53;5051300;28;20015;-76
2021/12/18 11:08:08;;;;;;;;;;;;;;;6.65;100.00;103448.69;5056307;28;19955;-76
2021/12/18 11:10:42;;;;;;;;;;;;;;;6.65;100.00;103445.19;5075630;28;19920;-77
2021/12/18 11:15:53;;;;;;;;;;;;;;;6.74;100.00;103432.69;5059226;28;19920;-75
2021/12/18 11:18:20;;;;;;;;;;;;;;;6.75;100.00;103430.94;5058612;28;19915;-76
2021/12/18 11:20:52;;;;;;;;;;;;;;;6.82;100.00;103429.81;5058240;28;20301;-75
2021/12/18 11:23:24;;;;;;;;;;;;;;;6.75;100.00;103425.72;5053166;28;20023;-76
2021/12/18 11:25:52;;;;;;;;;;;;;;;6.82;100.00;103416.75;5060029;28;19916;-77
2021/12/18 11:28:17;;;;;;;;;;;;;;;6.86;100.00;103415.75;5059795;28;20460;-75
2021/12/18 11:30:43;;;;;;;;;;;;;;;6.93;100.00;103413.72;5059896;28;19916;-77
2021/12/18 11:33:09;;;;;;;;;;;;;;;6.88;100.00;103413.91;5058634;28;19954;-76
2021/12/18 11:35:36;;;;;;;;;;;;;;;6.98;100.00;103411.81;5058468;28;19916;-76
2021/12/18 11:38:04;;;;;;;;;;;;;;;6.96;100.00;103409.25;5059663;28;19959;-76
2021/12/18 11:40:30;;;;;;;;;;;;;;;6.95;100.00;103409.31;5056560;28;19923;-78
2021/12/18 11:42:56;;;;;;;;;;;;;;;6.93;100.00;103406.78;5039519;28;19959;-76
2021/12/18 11:45:30;;;;;;;;;;;;;;;6.95;100.00;103399.75;5055733;28;19916;-77
2021/12/18 11:47:59;;;;;;;;;;;;;;;7.05;100.00;103392.41;5054263;28;20002;-78
2021/12/18 11:50:27;;;;;;;;;;;;;;;7.05;100.00;103396.78;5043917;28;19939;-76
2021/12/18 11:52:58;;;;;;;;;;;;;;;7.04;100.00;103392.47;5063640;28;19919;-76
2021/12/18 11:55:26;;;;;;;;;;;;;;;7.07;100.00;103393.19;5061445;28;19925;-77
2021/12/18 11:57:53;;;;;;;;;;;;;;;7.12;100.00;103380.84;5063377;28;19935;-76
2021/12/18 12:00:18;;;;;;;;;;;;;;;7.22;100.00;103376.09;5060239;28;19924;-75
2021/12/18 12:02:45;;;;;;;;;;;;;;;7.20;100.00;103376.16;5061163;28;19916;-75
2021/12/18 12:05:11;;;;;;;;;;;;;;;7.24;100.00;103366.44;5044916;28;19916;-77
2021/12/18 12:07:38;;;;;;;;;;;;;;;7.24;100.00;103371.66;5077123;28;19908;-77
2021/12/18 12:10:12;;;;;;;;;;;;;;;7.31;100.00;103367.03;5072688;28;19998;-75
2021/12/18 12:12:51;;;;;;;;;;;;;;;7.27;100.00;103373.28;5059439;28;19912;-76
2021/12/18 12:15:18;;;;;;;;;;;;;;;7.26;100.00;103377.66;5076751;28;19969;-76
2021/12/18 12:18:11;;;;;;;;;;;;;;;7.28;100.00;103368.00;5059968;28;19974;-76
2021/12/18 12:20:46;;;;;;;;;;;;;;;7.30;100.00;103363.59;5090573;28;19923;-77
2021/12/18 12:23:13;;;;;;;;;;;;;;;7.38;100.00;103373.72;5062002;28;19916;-78
2021/12/18 12:25:49;;;;;;;;;;;;;;;7.37;100.00;103359.81;5060262;28;20644;-77
2021/12/18 12:28:19;;;;;;;;;;;;;;;7.36;100.00;103363.31;5060876;28;19919;-77
2021/12/18 12:31:05;;;;;;;;;;;;;;;7.44;100.00;103363.03;5061221;28;19916;-77
2021/12/18 12:33:32;;;;;;;;;;;;;;;7.50;100.00;103357.56;5057141;28;19912;-77
2021/12/18 12:36:08;;;;;;;;;;;;;;;7.46;100.00;103357.75;5051740;28;19925;-75
2021/12/18 12:38:34;;;;;;;;;;;;;;;7.49;100.00;103352.41;5063337;28;19916;-75
2021/12/18 12:41:33;;;;;;;;;;;;;;;7.52;100.00;103341.84;5046883;28;20358;-78
2021/12/18 12:44:05;;;;;;;;;;;;;;;7.49;100.00;103342.78;5016928;28;19979;-77
2021/12/18 12:46:30;;;;;;;;;;;;;;;7.53;100.00;103333.06;5062404;28;19916;-78
2021/12/18 12:48:57;;;;;;;;;;;;;;;7.64;100.00;103345.69;5065146;28;19920;-76
2021/12/18 12:51:23;;;;;;;;;;;;;;;7.58;100.00;103333.75;5062777;28;19916;-76
2021/12/18 12:53:49;;;;;;;;;;;;;;;7.68;100.00;103327.22;5053942;28;19923;-76
2021/12/18 12:56:16;;;;;;;;;;;;;;;7.66;100.00;103330.81;5044763;28;19920;-75
2021/12/18 12:58:42;;;;;;;;;;;;;;;7.66;100.00;103328.19;5059760;28;20031;-76
2021/12/18 13:01:08;;;;;;;;;;;;;;;7.75;100.00;103322.59;5066753;28;19959;-76
2021/12/18 13:03:43;;;;;;;;;;;;;;;7.74;100.00;103323.50;5065845;28;19926;-76
2021/12/18 13:06:11;;;;;;;;;;;;;;;7.82;100.00;103323.16;5071900;28;19908;-76
2021/12/18 13:08:38;;;;;;;;;;;;;;;7.85;100.00;103320.44;5074359;28;19919;-76
2021/12/18 13:11:05;;;;;;;;;;;;;;;7.90;100.00;103318.47;5085168;28;19923;-76
2021/12/18 13:13:33;;;;;;;;;;;;;;;7.90;100.00;103313.25;5099911;28;19985;-77
2021/12/18 13:16:10;;;;;;;;;;;;;;;7.91;100.00;103315.81;5048890;28;19923;-77
2021/12/18 13:18:41;;;;;;;;;;;;;;;7.94;100.00;103313.03;5045758;28;19927;-76
2021/12/18 13:21:11;;;;;;;;;;;;;;;7.94;100.00;103318.25;5065795;28;19955;-78
2021/12/18 13:23:40;;;;;;;;;;;;;;;7.92;100.00;103308.81;5047440;28;19961;-75
2021/12/18 13:26:07;;;;;;;;;;;;;;;7.97;100.00;103312.91;5066842;28;20512;-75
2021/12/18 13:28:33;;;;;;;;;;;;;;;8.03;100.00;103301.34;5060027;28;19916;-76